Covington, IN

11:35 PM EST on December 21, 2014 (GMT -0500)
Rantoul | Change Station
CLOSE
Current Station
Airport
Location: Rantoul,
Elevation: 738 ft
Nearby Weather Stations

Elev 738 ft 40.29 °N, 88.15 °W | Updated 25 minutes ago

Partly Cloudy
Partly Cloudy
34 °F
Feels Like 25 °F
N
12
Wind Variable Wind from SE

Today
High -- | Low -- °F
--% Chance of Precip.
Yesterday
High -- | Low -- °F
Precip. -- in
8:08 AM 5:27 PM
New Moon, 0% visible
Pressure 30.03 in
Visibility 7.0 miles
Clouds Overcast 3900 ft
Windchill 25 °F
Dew Point 30 °F
Humidity 87%
Rainfall 0.00 in
Snow Depth Not available.
UV 0 out of 12
Pollen .10 out of 12
Air Quality Not available.
Flu Activity Not available.
METAR KTIP 220410Z AUTO 14010KT 7SM OVC039 01/M01 A3003

More Conditions Fewer Conditions

Pressure 30.03 in
Visibility 7.0 miles
Clouds Overcast 3900 ft
Windchill 25 °F
Dew Point 30 °F
Humidity 87%
Rainfall 0.00 in
Snow Depth Not available.
UV 0 out of 12
Pollen .10 out of 12
Air Quality Not available.
Flu Activity Not available.
METAR KTIP 220410Z AUTO 14010KT 7SM OVC039 01/M01 A3003

More Conditions Fewer Conditions

10-Day Weather Forecast

Almanac

Astronomy

Dec. 21, 2014 Rise Set
Actual Time
Civil Twilight
Nautical Twilight
Astronomical Twilight
Moon
Length of Visible Light
Length of Day
Tomorrow will be .
, % of the Moon is Illuminated

Today's Extremes

State Highs State Lows

Community

WunderPhotos

Upload Photos

1,779,540 photos uploaded!

WunderBlogs® & News

Nearby

Air Quality

  Air Quality AQ Index Pollutant
Not available.

Snow Depth

Station Depth Elevation

Earthquake Activity

City Distance Mag. Time & Date
Minimum magnitude displayed is 2.5.

Coastal Water Temperatures

Place Temperature

Nearby Weather Stations